sensor_id;sensor_type;location;lat;lon;timestamp;pressure;altitude;pressure_sealevel;temperature;humidity
82746;BME280;72484;50.004;14.356;2023-11-22T00:02:00;98275.38;;;2.89;68.93
82746;BME280;72484;50.004;14.356;2023-11-22T00:05:56;98275.76;;;2.83;69.25
82746;BME280;72484;50.004;14.356;2023-11-22T00:09:54;98274.54;;;2.88;69.55
82746;BME280;72484;50.004;14.356;2023-11-22T00:13:51;98273.32;;;3.11;69.62
82746;BME280;72484;50.004;14.356;2023-11-22T00:17:53;98282.39;;;3.19;68.65
82746;BME280;72484;50.004;14.356;2023-11-22T00:21:50;98300.94;;;2.98;68.20
82746;BME280;72484;50.004;14.356;2023-11-22T00:25:50;98306.04;;;2.73;69.19
82746;BME280;72484;50.004;14.356;2023-11-22T00:29:48;98308.49;;;2.71;69.60
82746;BME280;72484;50.004;14.356;2023-11-22T00:33:47;98306.16;;;2.67;69.35
82746;BME280;72484;50.004;14.356;2023-11-22T00:37:44;98317.79;;;2.55;69.12
82746;BME280;72484;50.004;14.356;2023-11-22T00:41:42;98315.80;;;2.45;69.60
82746;BME280;72484;50.004;14.356;2023-11-22T00:45:42;98310.05;;;2.37;69.89
82746;BME280;72484;50.004;14.356;2023-11-22T00:49:39;98314.24;;;2.43;70.14
82746;BME280;72484;50.004;14.356;2023-11-22T00:53:37;98318.22;;;2.42;69.53
82746;BME280;72484;50.004;14.356;2023-11-22T00:57:54;98315.00;;;2.37;69.34
82746;BME280;72484;50.004;14.356;2023-11-22T01:01:13;98326.66;;;2.22;69.94
82746;BME280;72484;50.004;14.356;2023-11-22T01:05:11;98319.77;;;2.18;70.08
82746;BME280;72484;50.004;14.356;2023-11-22T01:09:09;98322.23;;;2.12;70.42
82746;BME280;72484;50.004;14.356;2023-11-22T01:13:09;98329.10;;;2.15;70.41
82746;BME280;72484;50.004;14.356;2023-11-22T01:17:07;98333.34;;;2.17;70.69
82746;BME280;72484;50.004;14.356;2023-11-22T01:21:06;98334.16;;;2.03;70.92
82746;BME280;72484;50.004;14.356;2023-11-22T01:25:23;98338.25;;;1.96;71.46
82746;BME280;72484;50.004;14.356;2023-11-22T01:28:45;98346.77;;;1.92;71.21
82746;BME280;72484;50.004;14.356;2023-11-22T01:32:19;98352.53;;;2.04;70.84
82746;BME280;72484;50.004;14.356;2023-11-22T01:36:16;98358.83;;;1.99;70.94
82746;BME280;72484;50.004;14.356;2023-11-22T01:40:15;98355.31;;;1.98;71.09
82746;BME280;72484;50.004;14.356;2023-11-22T01:44:12;98366.69;;;1.95;70.88
82746;BME280;72484;50.004;14.356;2023-11-22T01:48:11;98369.98;;;1.95;71.01
82746;BME280;72484;50.004;14.356;2023-11-22T01:52:10;98370.52;;;1.87;70.85
82746;BME280;72484;50.004;14.356;2023-11-22T01:56:28;98373.16;;;1.72;71.28
82746;BME280;72484;50.004;14.356;2023-11-22T01:59:46;98380.91;;;1.65;71.73
82746;BME280;72484;50.004;14.356;2023-11-22T02:03:48;98385.38;;;1.68;71.64
82746;BME280;72484;50.004;14.356;2023-11-22T02:07:49;98377.88;;;1.74;71.35
82746;BME280;72484;50.004;14.356;2023-11-22T02:11:50;98376.02;;;1.80;70.96
82746;BME280;72484;50.004;14.356;2023-11-22T02:15:48;98390.30;;;1.83;71.24
82746;BME280;72484;50.004;14.356;2023-11-22T02:19:46;98399.31;;;1.82;70.65
82746;BME280;72484;50.004;14.356;2023-11-22T02:23:43;98407.02;;;1.78;71.07
82746;BME280;72484;50.004;14.356;2023-11-22T02:27:41;98415.57;;;1.84;70.89
82746;BME280;72484;50.004;14.356;2023-11-22T02:31:41;98428.45;;;1.97;70.89
82746;BME280;72484;50.004;14.356;2023-11-22T02:35:40;98433.45;;;2.05;70.60
82746;BME280;72484;50.004;14.356;2023-11-22T02:40:02;98433.45;;;2.00;70.20
82746;BME280;72484;50.004;14.356;2023-11-22T02:43:15;98436.29;;;1.89;69.90
82746;BME280;72484;50.004;14.356;2023-11-22T02:47:13;98439.67;;;1.87;70.07
82746;BME280;72484;50.004;14.356;2023-11-22T02:51:31;98448.23;;;1.93;70.03
82746;BME280;72484;50.004;14.356;2023-11-22T02:54:49;98454.98;;;1.86;69.39
82746;BME280;72484;50.004;14.356;2023-11-22T02:58:46;98452.63;;;1.77;69.26
82746;BME280;72484;50.004;14.356;2023-11-22T03:02:44;98449.77;;;1.66;68.75
82746;BME280;72484;50.004;14.356;2023-11-22T03:06:42;98451.29;;;1.62;68.79
82746;BME280;72484;50.004;14.356;2023-11-22T03:10:39;98450.50;;;1.60;69.11
82746;BME280;72484;50.004;14.356;2023-11-22T03:14:37;98458.38;;;1.62;68.95
82746;BME280;72484;50.004;14.356;2023-11-22T03:18:34;98461.11;;;1.68;69.11
82746;BME280;72484;50.004;14.356;2023-11-22T03:22:33;98467.66;;;1.73;68.81
82746;BME280;72484;50.004;14.356;2023-11-22T03:26:31;98472.19;;;1.78;68.80
82746;BME280;72484;50.004;14.356;2023-11-22T03:30:49;98469.60;;;1.79;68.36
82746;BME280;72484;50.004;14.356;2023-11-22T03:34:09;98474.23;;;1.76;68.80
82746;BME280;72484;50.004;14.356;2023-11-22T03:38:08;98479.24;;;1.82;68.76
82746;BME280;72484;50.004;14.356;2023-11-22T03:42:07;98487.22;;;1.90;69.19
82746;BME280;72484;50.004;14.356;2023-11-22T03:46:04;98482.93;;;2.06;68.82
82746;BME280;72484;50.004;14.356;2023-11-22T03:50:04;98487.46;;;2.21;68.14
82746;BME280;72484;50.004;14.356;2023-11-22T03:54:02;98499.89;;;2.27;68.06
82746;BME280;72484;50.004;14.356;2023-11-22T03:58:00;98510.66;;;2.29;67.78
82746;BME280;72484;50.004;14.356;2023-11-22T04:01:57;98521.18;;;2.17;68.12
82746;BME280;72484;50.004;14.356;2023-11-22T04:05:55;98522.79;;;2.20;69.07
82746;BME280;72484;50.004;14.356;2023-11-22T04:09:53;98534.02;;;2.21;70.00
82746;BME280;72484;50.004;14.356;2023-11-22T04:13:52;98549.88;;;2.24;69.36
82746;BME280;72484;50.004;14.356;2023-11-22T04:17:49;98550.16;;;2.00;68.66
82746;BME280;72484;50.004;14.356;2023-11-22T04:22:10;98542.85;;;1.83;68.35
82746;BME280;72484;50.004;14.356;2023-11-22T04:25:28;98545.48;;;1.67;68.77
82746;BME280;72484;50.004;14.356;2023-11-22T04:29:26;98548.98;;;1.52;69.40
82746;BME280;72484;50.004;14.356;2023-11-22T04:33:25;98547.85;;;1.51;69.80
82746;BME280;72484;50.004;14.356;2023-11-22T04:37:24;98543.78;;;1.50;69.68
82746;BME280;72484;50.004;14.356;2023-11-22T04:41:23;98537.25;;;1.58;69.91
82746;BME280;72484;50.004;14.356;2023-11-22T04:45:23;98546.05;;;1.51;68.94
82746;BME280;72484;50.004;14.356;2023-11-22T04:49:39;98558.65;;;1.38;68.72
82746;BME280;72484;50.004;14.356;2023-11-22T04:52:59;98572.36;;;1.32;68.92
82746;BME280;72484;50.004;14.356;2023-11-22T04:56:59;98576.40;;;1.25;69.05
82746;BME280;72484;50.004;14.356;2023-11-22T05:00:58;98581.41;;;1.11;69.63
82746;BME280;72484;50.004;14.356;2023-11-22T05:04:55;98593.49;;;1.14;69.87
82746;BME280;72484;50.004;14.356;2023-11-22T05:08:54;98598.78;;;1.13;69.69
82746;BME280;72484;50.004;14.356;2023-11-22T05:12:52;98608.71;;;1.08;69.77
82746;BME280;72484;50.004;14.356;2023-11-22T05:16:56;98612.05;;;0.99;70.12
82746;BME280;72484;50.004;14.356;2023-11-22T05:20:59;98622.81;;;1.01;70.34
82746;BME280;72484;50.004;14.356;2023-11-22T05:24:32;98629.02;;;1.03;70.59
82746;BME280;72484;50.004;14.356;2023-11-22T05:28:30;98627.60;;;0.95;70.57
82746;BME280;72484;50.004;14.356;2023-11-22T05:32:27;98633.17;;;1.03;70.75
82746;BME280;72484;50.004;14.356;2023-11-22T05:36:30;98646.77;;;1.02;70.90
82746;BME280;72484;50.004;14.356;2023-11-22T05:40:27;98655.37;;;1.09;70.80
82746;BME280;72484;50.004;14.356;2023-11-22T05:44:25;98658.65;;;1.08;71.10
82746;BME280;72484;50.004;14.356;2023-11-22T05:48:23;98659.48;;;1.04;71.63
82746;BME280;72484;50.004;14.356;2023-11-22T05:52:21;98666.05;;;1.02;71.64
82746;BME280;72484;50.004;14.356;2023-11-22T05:56:19;98667.35;;;1.05;71.90
82746;BME280;72484;50.004;14.356;2023-11-22T06:00:17;98673.30;;;1.11;71.05
82746;BME280;72484;50.004;14.356;2023-11-22T06:04:17;98686.30;;;1.03;70.83
82746;BME280;72484;50.004;14.356;2023-11-22T06:08:16;98685.92;;;0.99;71.27
82746;BME280;72484;50.004;14.356;2023-11-22T06:12:15;98686.27;;;1.04;71.26
82746;BME280;72484;50.004;14.356;2023-11-22T06:16:33;98687.45;;;1.23;71.00
82746;BME280;72484;50.004;14.356;2023-11-22T06:19:52;98693.38;;;1.16;70.38
82746;BME280;72484;50.004;14.356;2023-11-22T06:23:50;98692.58;;;1.15;70.72
82746;BME280;72484;50.004;14.356;2023-11-22T06:27:49;98699.04;;;1.16;71.08
82746;BME280;72484;50.004;14.356;2023-11-22T06:31:46;98702.38;;;1.18;70.82
82746;BME280;72484;50.004;14.356;2023-11-22T06:35:44;98688.89;;;1.15;71.41
82746;BME280;72484;50.004;14.356;2023-11-22T06:39:41;98702.83;;;1.18;72.37
82746;BME280;72484;50.004;14.356;2023-11-22T06:43:39;98711.93;;;1.12;71.80
82746;BME280;72484;50.004;14.356;2023-11-22T06:47:58;98710.27;;;1.15;72.14
82746;BME280;72484;50.004;14.356;2023-11-22T06:52:36;98715.66;;;1.23;71.12
82746;BME280;72484;50.004;14.356;2023-11-22T06:56:35;98718.52;;;1.18;71.19
82746;BME280;72484;50.004;14.356;2023-11-22T07:00:33;98721.19;;;1.12;70.95
82746;BME280;72484;50.004;14.356;2023-11-22T07:04:31;98719.04;;;1.27;71.33
82746;BME280;72484;50.004;14.356;2023-11-22T07:08:28;98715.42;;;1.43;70.34
82746;BME280;72484;50.004;14.356;2023-11-22T07:12:28;98723.19;;;1.56;70.14
82746;BME280;72484;50.004;14.356;2023-11-22T07:17:06;98737.45;;;1.54;69.41
82746;BME280;72484;50.004;14.356;2023-11-22T07:21:03;98743.89;;;1.48;69.56
82746;BME280;72484;50.004;14.356;2023-11-22T07:25:01;98752.04;;;1.53;70.06
82746;BME280;72484;50.004;14.356;2023-11-22T07:29:02;98764.73;;;1.66;69.66
82746;BME280;72484;50.004;14.356;2023-11-22T07:33:01;98785.73;;;1.65;69.12
82746;BME280;72484;50.004;14.356;2023-11-22T07:37:02;98807.20;;;1.35;69.60
82746;BME280;72484;50.004;14.356;2023-11-22T07:40:59;98808.73;;;1.22;70.55
82746;BME280;72484;50.004;14.356;2023-11-22T07:45:00;98818.70;;;1.27;70.21
82746;BME280;72484;50.004;14.356;2023-11-22T07:48:57;98824.81;;;1.14;70.70
82746;BME280;72484;50.004;14.356;2023-11-22T07:52:57;98809.57;;;1.11;70.95
82746;BME280;72484;50.004;14.356;2023-11-22T07:56:54;98802.88;;;1.07;71.25
82746;BME280;72484;50.004;14.356;2023-11-22T08:01:35;98806.02;;;1.12;71.47
82746;BME280;72484;50.004;14.356;2023-11-22T08:05:36;98786.44;;;1.25;71.29
82746;BME280;72484;50.004;14.356;2023-11-22T08:09:38;98774.02;;;1.42;71.14
82746;BME280;72484;50.004;14.356;2023-11-22T08:13:38;98794.59;;;1.61;70.97
82746;BME280;72484;50.004;14.356;2023-11-22T08:17:36;98820.88;;;1.68;70.43
82746;BME280;72484;50.004;14.356;2023-11-22T08:21:37;98840.36;;;1.51;70.82
82746;BME280;72484;50.004;14.356;2023-11-22T08:25:35;98840.31;;;1.36;70.71
82746;BME280;72484;50.004;14.356;2023-11-22T08:29:34;98846.09;;;1.31;71.59
82746;BME280;72484;50.004;14.356;2023-11-22T08:33:32;98857.05;;;1.39;71.38
82746;BME280;72484;50.004;14.356;2023-11-22T08:37:30;98885.72;;;1.38;71.72
82746;BME280;72484;50.004;14.356;2023-11-22T08:41:30;98892.19;;;1.32;71.76
82746;BME280;72484;50.004;14.356;2023-11-22T08:45:27;98888.55;;;1.38;71.68
82746;BME280;72484;50.004;14.356;2023-11-22T08:49:24;98872.30;;;1.41;72.06
82746;BME280;72484;50.004;14.356;2023-11-22T08:53:21;98863.95;;;1.53;71.24
82746;BME280;72484;50.004;14.356;2023-11-22T08:57:18;98870.03;;;1.57;71.54
82746;BME280;72484;50.004;14.356;2023-11-22T09:01:17;98882.85;;;1.62;71.24
82746;BME280;72484;50.004;14.356;2023-11-22T09:05:14;98889.93;;;1.52;71.61
82746;BME280;72484;50.004;14.356;2023-11-22T09:09:34;98895.98;;;1.50;71.62
82746;BME280;72484;50.004;14.356;2023-11-22T09:14:11;98897.65;;;1.50;71.64
82746;BME280;72484;50.004;14.356;2023-11-22T09:18:09;98904.56;;;1.49;71.69
82746;BME280;72484;50.004;14.356;2023-11-22T09:22:07;98914.48;;;1.49;71.54
82746;BME280;72484;50.004;14.356;2023-11-22T09:26:06;98907.00;;;1.47;72.13
82746;BME280;72484;50.004;14.356;2023-11-22T09:30:04;98912.54;;;1.65;71.54
82746;BME280;72484;50.004;14.356;2023-11-22T09:34:02;98906.59;;;1.62;71.49
82746;BME280;72484;50.004;14.356;2023-11-22T09:38:01;98906.11;;;1.60;71.54
82746;BME280;72484;50.004;14.356;2023-11-22T09:41:59;98907.84;;;1.58;71.74
82746;BME280;72484;50.004;14.356;2023-11-22T09:45:56;98907.17;;;1.52;71.49
82746;BME280;72484;50.004;14.356;2023-11-22T09:49:56;98917.53;;;1.43;71.85
82746;BME280;72484;50.004;14.356;2023-11-22T09:53:58;98925.17;;;1.33;72.08
82746;BME280;72484;50.004;14.356;2023-11-22T09:58:00;98929.81;;;1.36;72.09
82746;BME280;72484;50.004;14.356;2023-11-22T10:01:59;98926.14;;;1.58;72.12
82746;BME280;72484;50.004;14.356;2023-11-22T10:05:57;98934.81;;;1.74;71.39
82746;BME280;72484;50.004;14.356;2023-11-22T10:09:55;98943.55;;;1.59;71.47
82746;BME280;72484;50.004;14.356;2023-11-22T10:13:57;98951.04;;;1.57;71.67
82746;BME280;72484;50.004;14.356;2023-11-22T10:18:12;98964.39;;;1.46;71.87
82746;BME280;72484;50.004;14.356;2023-11-22T10:21:31;98971.77;;;1.41;71.83
82746;BME280;72484;50.004;14.356;2023-11-22T10:25:28;98968.92;;;1.38;71.91
82746;BME280;72484;50.004;14.356;2023-11-22T10:29:27;98973.85;;;1.45;72.10
82746;BME280;72484;50.004;14.356;2023-11-22T10:33:25;98977.13;;;1.51;71.67
82746;BME280;72484;50.004;14.356;2023-11-22T10:37:22;98973.08;;;1.50;71.70
82746;BME280;72484;50.004;14.356;2023-11-22T10:41:22;98973.61;;;1.49;71.75
82746;BME280;72484;50.004;14.356;2023-11-22T10:45:21;98964.66;;;1.41;71.81
82746;BME280;72484;50.004;14.356;2023-11-22T10:49:20;98970.92;;;1.45;72.01
82746;BME280;72484;50.004;14.356;2023-11-22T10:53:21;98982.05;;;1.50;71.76
82746;BME280;72484;50.004;14.356;2023-11-22T10:57:24;98987.03;;;1.51;71.30
82746;BME280;72484;50.004;14.356;2023-11-22T11:01:26;98990.05;;;1.55;71.47
82746;BME280;72484;50.004;14.356;2023-11-22T11:05:29;98989.81;;;1.67;71.59
82746;BME280;72484;50.004;14.356;2023-11-22T11:09:28;98990.27;;;1.80;70.98
82746;BME280;72484;50.004;14.356;2023-11-22T11:13:28;98992.88;;;1.74;71.38
82746;BME280;72484;50.004;14.356;2023-11-22T11:17:27;98997.08;;;1.73;71.32
82746;BME280;72484;50.004;14.356;2023-11-22T11:21:26;98983.98;;;1.65;71.09
82746;BME280;72484;50.004;14.356;2023-11-22T11:25:23;98974.46;;;1.67;71.55
82746;BME280;72484;50.004;14.356;2023-11-22T11:29:34;98966.45;;;1.72;71.39
82746;BME280;72484;50.004;14.356;2023-11-22T11:33:52;98960.01;;;1.85;71.32
82746;BME280;72484;50.004;14.356;2023-11-22T11:38:12;98964.95;;;1.92;70.98
82746;BME280;72484;50.004;14.356;2023-11-22T11:41:49;98971.79;;;1.74;70.81
82746;BME280;72484;50.004;14.356;2023-11-22T11:45:48;98968.92;;;1.63;70.96
82746;BME280;72484;50.004;14.356;2023-11-22T11:49:45;98974.23;;;1.52;71.33
82746;BME280;72484;50.004;14.356;2023-11-22T11:53:47;98976.02;;;1.48;71.67
82746;BME280;72484;50.004;14.356;2023-11-22T11:57:45;98967.91;;;1.60;71.94
82746;BME280;72484;50.004;14.356;2023-11-22T12:01:43;98975.96;;;1.76;71.47
82746;BME280;72484;50.004;14.356;2023-11-22T12:05:41;98973.83;;;1.97;71.53
82746;BME280;72484;50.004;14.356;2023-11-22T12:09:41;98983.33;;;1.95;70.57
82746;BME280;72484;50.004;14.356;2023-11-22T12:13:39;98979.51;;;1.89;71.04
82746;BME280;72484;50.004;14.356;2023-11-22T12:17:45;98992.88;;;1.83;70.68
82746;BME280;72484;50.004;14.356;2023-11-22T12:22:02;99001.30;;;1.69;70.67
82746;BME280;72484;50.004;14.356;2023-11-22T12:26:01;99006.04;;;1.62;70.97
82746;BME280;72484;50.004;14.356;2023-11-22T12:29:59;99008.09;;;1.62;70.68
82746;BME280;72484;50.004;14.356;2023-11-22T12:33:58;99018.79;;;1.61;70.71
82746;BME280;72484;50.004;14.356;2023-11-22T12:37:56;99020.33;;;1.63;70.74
82746;BME280;72484;50.004;14.356;2023-11-22T12:41:55;99028.81;;;1.74;70.69
82746;BME280;72484;50.004;14.356;2023-11-22T12:46:25;99041.84;;;1.73;69.78
82746;BME280;72484;50.004;14.356;2023-11-22T12:50:03;99036.29;;;1.62;70.29
82746;BME280;72484;50.004;14.356;2023-11-22T12:54:01;99016.50;;;1.68;70.40
82746;BME280;72484;50.004;14.356;2023-11-22T12:58:00;99017.02;;;1.72;70.03
82746;BME280;72484;50.004;14.356;2023-11-22T13:01:59;99019.61;;;1.67;69.55
82746;BME280;72484;50.004;14.356;2023-11-22T13:06:03;98999.66;;;1.66;70.40
82746;BME280;72484;50.004;14.356;2023-11-22T13:09:38;98988.45;;;1.92;70.41
82746;BME280;72484;50.004;14.356;2023-11-22T13:13:35;98984.81;;;2.14;69.79
82746;BME280;72484;50.004;14.356;2023-11-22T13:17:33;98981.27;;;2.23;68.90
82746;BME280;72484;50.004;14.356;2023-11-22T13:21:30;98980.13;;;2.14;68.94
82746;BME280;72484;50.004;14.356;2023-11-22T13:25:48;98978.85;;;2.24;69.23
82746;BME280;72484;50.004;14.356;2023-11-22T13:29:26;98994.95;;;2.28;68.88
82746;BME280;72484;50.004;14.356;2023-11-22T13:33:24;98998.96;;;2.19;68.45
82746;BME280;72484;50.004;14.356;2023-11-22T13:37:31;98997.20;;;2.13;68.58
82746;BME280;72484;50.004;14.356;2023-11-22T13:41:48;98999.15;;;2.07;68.66
82746;BME280;72484;50.004;14.356;2023-11-22T13:45:46;99000.58;;;2.06;68.46
82746;BME280;72484;50.004;14.356;2023-11-22T13:49:46;98995.05;;;1.98;68.89
82746;BME280;72484;50.004;14.356;2023-11-22T13:54:04;98990.56;;;1.89;68.92
82746;BME280;72484;50.004;14.356;2023-11-22T13:58:22;98981.02;;;1.89;68.90
82746;BME280;72484;50.004;14.356;2023-11-22T14:02:02;98984.05;;;1.83;69.47
82746;BME280;72484;50.004;14.356;2023-11-22T14:05:59;98998.18;;;1.94;69.53
82746;BME280;72484;50.004;14.356;2023-11-22T14:09:57;98998.75;;;1.95;69.04
82746;BME280;72484;50.004;14.356;2023-11-22T14:13:54;99006.78;;;1.98;69.36
82746;BME280;72484;50.004;14.356;2023-11-22T14:17:54;99001.38;;;2.00;68.86
82746;BME280;72484;50.004;14.356;2023-11-22T14:21:51;99006.77;;;1.89;68.89
82746;BME280;72484;50.004;14.356;2023-11-22T14:26:09;99012.16;;;1.86;69.23
82746;BME280;72484;50.004;14.356;2023-11-22T14:29:27;99020.24;;;1.90;69.37
82746;BME280;72484;50.004;14.356;2023-11-22T14:33:25;99027.96;;;1.90;68.77
82746;BME280;72484;50.004;14.356;2023-11-22T14:37:28;99021.33;;;1.85;68.88
82746;BME280;72484;50.004;14.356;2023-11-22T14:41:28;99011.83;;;1.88;68.85
82746;BME280;72484;50.004;14.356;2023-11-22T14:46:06;99025.95;;;1.91;67.94
82746;BME280;72484;50.004;14.356;2023-11-22T14:50:07;99019.83;;;1.87;68.22
82746;BME280;72484;50.004;14.356;2023-11-22T14:54:24;99026.14;;;1.86;68.16
82746;BME280;72484;50.004;14.356;2023-11-22T14:58:24;99028.48;;;1.82;67.97
82746;BME280;72484;50.004;14.356;2023-11-22T15:02:22;99035.48;;;1.87;68.64
82746;BME280;72484;50.004;14.356;2023-11-22T15:06:24;99025.48;;;1.89;68.10
82746;BME280;72484;50.004;14.356;2023-11-22T15:11:05;99000.75;;;1.78;68.70
82746;BME280;72484;50.004;14.356;2023-11-22T15:15:24;99009.61;;;1.95;68.74
82746;BME280;72484;50.004;14.356;2023-11-22T15:18:46;99027.96;;;1.91;68.52
82746;BME280;72484;50.004;14.356;2023-11-22T15:22:44;99032.34;;;1.82;68.43
82746;BME280;72484;50.004;14.356;2023-11-22T15:26:41;99031.02;;;1.80;68.47
82746;BME280;72484;50.004;14.356;2023-11-22T15:30:39;99019.52;;;1.73;68.67
82746;BME280;72484;50.004;14.356;2023-11-22T15:34:39;99034.52;;;1.76;68.95
82746;BME280;72484;50.004;14.356;2023-11-22T15:38:37;99032.99;;;1.74;68.67
82746;BME280;72484;50.004;14.356;2023-11-22T15:42:36;99018.34;;;1.78;68.76
82746;BME280;72484;50.004;14.356;2023-11-22T15:46:33;99021.73;;;1.88;68.92
82746;BME280;72484;50.004;14.356;2023-11-22T15:50:31;99027.21;;;1.89;68.44
82746;BME280;72484;50.004;14.356;2023-11-22T15:54:48;99035.48;;;1.87;68.09
82746;BME280;72484;50.004;14.356;2023-11-22T15:58:25;99037.85;;;1.73;68.27
82746;BME280;72484;50.004;14.356;2023-11-22T16:02:22;99047.76;;;1.73;68.71
82746;BME280;72484;50.004;14.356;2023-11-22T16:06:19;99044.63;;;1.83;68.51
82746;BME280;72484;50.004;14.356;2023-11-22T16:10:16;99048.09;;;1.96;68.91
82746;BME280;72484;50.004;14.356;2023-11-22T16:14:14;99061.52;;;2.13;68.24
82746;BME280;72484;50.004;14.356;2023-11-22T16:18:12;99064.30;;;2.12;67.64
82746;BME280;72484;50.004;14.356;2023-11-22T16:22:09;99065.02;;;2.03;67.87
82746;BME280;72484;50.004;14.356;2023-11-22T16:26:06;99068.48;;;2.05;68.01
82746;BME280;72484;50.004;14.356;2023-11-22T16:30:04;99075.58;;;1.96;67.84
82746;BME280;72484;50.004;14.356;2023-11-22T16:34:01;99077.52;;;1.89;68.14
82746;BME280;72484;50.004;14.356;2023-11-22T16:38:00;99077.73;;;2.06;68.21
82746;BME280;72484;50.004;14.356;2023-11-22T16:41:58;99080.81;;;2.11;68.19
82746;BME280;72484;50.004;14.356;2023-11-22T16:45:55;99075.81;;;2.05;67.99
82746;BME280;72484;50.004;14.356;2023-11-22T16:49:53;99077.83;;;2.03;68.48
82746;BME280;72484;50.004;14.356;2023-11-22T16:53:50;99084.24;;;2.12;68.12
82746;BME280;72484;50.004;14.356;2023-11-22T16:57:47;99080.84;;;2.10;68.30
82746;BME280;72484;50.004;14.356;2023-11-22T17:01:44;99072.33;;;2.21;68.63
82746;BME280;72484;50.004;14.356;2023-11-22T17:05:41;99067.87;;;2.30;68.27
82746;BME280;72484;50.004;14.356;2023-11-22T17:09:41;99078.31;;;2.37;67.66
82746;BME280;72484;50.004;14.356;2023-11-22T17:13:38;99084.05;;;2.26;67.35
82746;BME280;72484;50.004;14.356;2023-11-22T17:17:36;99088.06;;;2.23;68.07
82746;BME280;72484;50.004;14.356;2023-11-22T17:21:34;99086.02;;;2.38;68.34
82746;BME280;72484;50.004;14.356;2023-11-22T17:25:32;99087.61;;;2.39;67.75
82746;BME280;72484;50.004;14.356;2023-11-22T17:29:28;99083.90;;;2.45;68.39
82746;BME280;72484;50.004;14.356;2023-11-22T17:33:26;99096.34;;;2.52;68.14
82746;BME280;72484;50.004;14.356;2023-11-22T17:37:26;99105.10;;;2.55;67.43
82746;BME280;72484;50.004;14.356;2023-11-22T17:41:23;99096.30;;;2.44;67.21
82746;BME280;72484;50.004;14.356;2023-11-22T17:45:20;99100.48;;;2.45;68.23
82746;BME280;72484;50.004;14.356;2023-11-22T17:49:18;99096.44;;;2.53;68.19
82746;BME280;72484;50.004;14.356;2023-11-22T17:53:15;99089.48;;;2.60;68.29
82746;BME280;72484;50.004;14.356;2023-11-22T17:57:12;99104.45;;;2.65;68.27
82746;BME280;72484;50.004;14.356;2023-11-22T18:01:09;99100.70;;;2.65;67.77
82746;BME280;72484;50.004;14.356;2023-11-22T18:05:08;99097.21;;;2.69;68.22
82746;BME280;72484;50.004;14.356;2023-11-22T18:09:05;99100.22;;;2.71;68.03
82746;BME280;72484;50.004;14.356;2023-11-22T18:13:05;99098.97;;;2.79;68.04
82746;BME280;72484;50.004;14.356;2023-11-22T18:17:03;99105.45;;;2.84;68.13
82746;BME280;72484;50.004;14.356;2023-11-22T18:21:00;99095.94;;;2.91;68.04
82746;BME280;72484;50.004;14.356;2023-11-22T18:24:57;99095.80;;;2.93;67.56
82746;BME280;72484;50.004;14.356;2023-11-22T18:28:53;99077.81;;;2.93;67.58
82746;BME280;72484;50.004;14.356;2023-11-22T18:32:51;99077.85;;;2.98;67.94
82746;BME280;72484;50.004;14.356;2023-11-22T18:36:48;99070.73;;;2.99;67.74
82746;BME280;72484;50.004;14.356;2023-11-22T18:40:45;99066.83;;;3.02;67.77
82746;BME280;72484;50.004;14.356;2023-11-22T18:45:04;99065.85;;;3.03;67.51
82746;BME280;72484;50.004;14.356;2023-11-22T18:48:40;99057.44;;;3.02;67.85
82746;BME280;72484;50.004;14.356;2023-11-22T18:52:38;99055.98;;;2.95;67.57
82746;BME280;72484;50.004;14.356;2023-11-22T18:56:35;99040.73;;;2.83;67.58
82746;BME280;72484;50.004;14.356;2023-11-22T19:00:52;99045.02;;;2.72;67.93
82746;BME280;72484;50.004;14.356;2023-11-22T19:04:10;99053.70;;;2.61;68.04
82746;BME280;72484;50.004;14.356;2023-11-22T19:08:07;99057.75;;;2.47;68.36
82746;BME280;72484;50.004;14.356;2023-11-22T19:12:05;99052.39;;;2.42;68.59
82746;BME280;72484;50.004;14.356;2023-11-22T19:16:02;99061.08;;;2.35;68.65
82746;BME280;72484;50.004;14.356;2023-11-22T19:20:02;99051.51;;;2.28;68.81
82746;BME280;72484;50.004;14.356;2023-11-22T19:24:19;99048.71;;;2.26;69.06
82746;BME280;72484;50.004;14.356;2023-11-22T19:27:56;99026.65;;;2.24;69.34
82746;BME280;72484;50.004;14.356;2023-11-22T19:31:55;99014.73;;;2.22;69.25
82746;BME280;72484;50.004;14.356;2023-11-22T19:35:54;99006.42;;;2.19;69.53
82746;BME280;72484;50.004;14.356;2023-11-22T19:39:52;99004.54;;;2.20;69.72
82746;BME280;72484;50.004;14.356;2023-11-22T19:43:50;98995.13;;;2.23;69.54
82746;BME280;72484;50.004;14.356;2023-11-22T19:48:07;98988.45;;;2.25;69.92
82746;BME280;72484;50.004;14.356;2023-11-22T19:51:25;98980.67;;;2.24;69.76
82746;BME280;72484;50.004;14.356;2023-11-22T19:55:23;98960.96;;;2.20;69.50
82746;BME280;72484;50.004;14.356;2023-11-22T19:59:20;98964.78;;;2.21;69.67
82746;BME280;72484;50.004;14.356;2023-11-22T20:03:18;98968.18;;;2.21;69.72
82746;BME280;72484;50.004;14.356;2023-11-22T20:07:15;98970.20;;;2.32;69.68
82746;BME280;72484;50.004;14.356;2023-11-22T20:11:13;98965.43;;;2.40;69.67
82746;BME280;72484;50.004;14.356;2023-11-22T20:15:11;98953.73;;;2.47;69.36
82746;BME280;72484;50.004;14.356;2023-11-22T20:19:08;98938.39;;;2.40;69.54
82746;BME280;72484;50.004;14.356;2023-11-22T20:23:07;98942.37;;;2.31;69.78
82746;BME280;72484;50.004;14.356;2023-11-22T20:27:44;98954.94;;;2.34;69.98
82746;BME280;72484;50.004;14.356;2023-11-22T20:31:41;98990.35;;;2.46;69.92
82746;BME280;72484;50.004;14.356;2023-11-22T20:35:38;99005.23;;;2.56;69.59
82746;BME280;72484;50.004;14.356;2023-11-22T20:39:35;98993.61;;;2.64;69.62
82746;BME280;72484;50.004;14.356;2023-11-22T20:43:33;98996.89;;;2.73;69.57
82746;BME280;72484;50.004;14.356;2023-11-22T20:47:30;98987.48;;;2.80;69.61
82746;BME280;72484;50.004;14.356;2023-11-22T20:51:27;98984.81;;;2.86;69.38
82746;BME280;72484;50.004;14.356;2023-11-22T20:55:24;98975.55;;;2.90;69.30
82746;BME280;72484;50.004;14.356;2023-11-22T20:59:22;98965.20;;;2.92;69.52
82746;BME280;72484;50.004;14.356;2023-11-22T21:03:19;98958.83;;;2.95;69.63